ADDS METAR Data INFO
IDs: Format: Raw Decoded Include TAF

Data at: 0251 UTC 21 Jan 2018

KWAL 210154Z AUTO 00000KT 10SM CLR 02/00 A3010 RMK AO2 SLP188 T00220000
KWAL 210054Z AUTO 00000KT 10SM CLR 03/M02 A3008 RMK AO2 SLP183 T00281017
KWAL 202354Z AUTO 00000KT 10SM CLR 03/M01 A3006 RMK AO2 SLP177 T00331006 10139 20033 53016
KWAL 202254Z AUTO 00000KT 10SM CLR 06/M01 A3005 RMK AO2 SLP172 T00611006
KWAL 202154Z AUTO 26003KT 10SM CLR 12/M04 A3003 RMK AO2 SLP166 T01221039
KWAL 202054Z AUTO 24007KT 10SM CLR 13/M04 A3002 RMK AO2 SLP161 T01331044 53003
KWAL 201954Z AUTO 26008KT 10SM CLR 13/M05 A3000 RMK AO2 SLP156 T01281050
KWAL 201854Z AUTO 25009KT 10SM CLR 13/M06 A3000 RMK AO2 SLP156 T01281056
KWAL 201754Z AUTO 27009KT 10SM CLR 11/M07 A3001 RMK AO2 SLP158 T01111067 10117 20039 58019
KWAL 201654Z AUTO 26011KT 10SM CLR 11/M07 A3004 RMK AO2 SLP169 T01061072
KWAL 201554Z AUTO 26011KT 10SM CLR 09/M08 A3006 RMK AO2 SLP176 T00941083
KWAL 201454Z AUTO 25011KT 10SM CLR 08/M09 A3006 RMK AO2 SLP177 T00831094 51006
KWAL 201354Z AUTO 25007KT 10SM CLR 07/M09 A3006 RMK AO2 SLP176 T00671089
KWAL 201254Z AUTO 24007KT 10SM CLR 04/M09 A3006 RMK AO2 SLP176 T00441094
KWAL 201154Z AUTO 24007KT 10SM CLR 04/M09 A3004 RMK AO2 SLP171 T00441094 10050 21011 53005
KWAL 201054Z AUTO 24008KT 10SM CLR 04/M09 A3003 RMK AO2 SLP166 T00441094
KWAL 200954Z AUTO 24006KT 10SM CLR 04/M09 A3003 RMK AO2 SLP164 T00391094
KWAL 200854Z AUTO 24006KT 10SM CLR 04/M09 A3003 RMK AO2 SLP165 T00391094 58009
KWAL 200754Z AUTO 24004KT 10SM CLR 00/M08 A3004 RMK AO2 SLP170 T00001083
KWAL 200654Z AUTO 23006KT 10SM CLR 03/M09 A3004 RMK AO2 SLP170 T00331094
KWAL 200554Z AUTO 23005KT 10SM CLR M01/M04 A3006 RMK AO2 SLP174 T10111039 10017 21022 58010
KWAL 200454Z AUTO 22003KT 10SM CLR M01/M05 A3007 RMK AO2 SLP179 T10061050 401001039
KWAL 200354Z AUTO 20003KT 10SM CLR M01/M07 A3009 RMK AO2 SLP185 T10111067
KWAL 200254Z AUTO 21007KT 10SM CLR 01/M06 A3009 RMK AO2 SLP184 T00061061 58002
KWAL 200154Z AUTO 18007KT 10SM CLR M02/M07 A3009 RMK AO2 SLP186 T10171067
KWAL 200054Z AUTO 00000KT 10SM CLR M02/M07 A3010 RMK AO2 SLP188 T10171067
KWAL 192354Z AUTO 00000KT 10SM CLR 00/M06 A3009 RMK AO2 SLP187 T00001061 10100 21006 53002
KWAL 192254Z AUTO 00000KT 10SM CLR 02/M06 A3009 RMK AO2 SLP187 T00221061
KWAL 192154Z 21003KT 10SM CLR 06/M06 A3008 RMK AO2 SLP184 T00611061
KWAL 192054Z 23005KT 10SM CLR 08/M06 A3009 RMK AO2 SLP185 T00781056 55002
KWAL 191954Z 19010KT 10SM CLR 08/M04 A3008 RMK AO2 SLP183 T00781039
KWAL 191854Z 18009KT 10SM FEW250 08/M04 A3008 RMK AO2 SLP182 T00831039
KWAL 191754Z 00000KT 10SM FEW250 10/M08 A3009 RMK AO2 SLP187 T01001078 10100 21039 58025
KWAL 191654Z 33004KT 10SM FEW250 09/M07 A3014 RMK AO2 SLP202 T00891072
KWAL 191554Z 28005KT 10SM FEW250 07/M06 A3017 RMK AO2 SLP213 T00671056
KWAL 191454Z 26004KT 10SM FEW250 05/M06 A3017 RMK AO2 SLP212 T00501061 51009